Terminal Aerodrome Forecast
Issued by NWS North Platte, NE

Home | Current Version | Previous Version | Graphics & Text | Print | Product List | Glossary On
Versions: 1 2 3 4 5 6 7 8 9 10 11 12 13 14
000
FTUS43 KLBF 261900 AAA
TAFVTN
TAF AMD
KVTN 261939Z 2620/2718 36012KT P6SM FEW025 BKN030 BKN045
     FM262100 35013KT P6SM SCT150
     FM270000 33009KT P6SM SCT150
     FM271500 33012KT P6SM SCT100=

USA.gov is the U.S. government's official web portal to all federal, state and local government web resources and services.